createdAt,value
2022-08-05T00:01:36.168Z,25.50
2022-08-05T00:04:18.002Z,13.27
2022-08-05T00:06:46.918Z,13.77
2022-08-05T00:09:15.963Z,12.40
2022-08-05T00:11:49.320Z,12.30
2022-08-05T00:14:27.756Z,12.48
2022-08-05T00:16:57.671Z,11.35
2022-08-05T00:19:33.206Z,12.68
2022-08-05T00:22:11.300Z,12.35
2022-08-05T00:24:42.446Z,12.75
2022-08-05T00:27:14.208Z,13.65
2022-08-05T00:29:44.626Z,12.02
2022-08-05T00:32:15.422Z,11.75
2022-08-05T00:35:03.961Z,12.40
2022-08-05T00:37:50.398Z,11.70
2022-08-05T00:40:27.034Z,13.90
2022-08-05T00:43:00.702Z,12.90
2022-08-05T00:45:38.931Z,17.48
2022-08-05T00:48:27.410Z,12.73
2022-08-05T00:50:58.955Z,11.90
2022-08-05T00:54:00.032Z,14.45
2022-08-05T00:56:17.398Z,17.52
2022-08-05T00:58:50.357Z,13.70
2022-08-05T01:01:42.279Z,13.25
2022-08-05T01:04:13.769Z,16.70
2022-08-05T01:06:46.661Z,18.60
2022-08-05T01:09:19.851Z,16.45
2022-08-05T01:11:53.087Z,15.85
2022-08-05T01:14:38.859Z,15.75
2022-08-05T01:17:11.980Z,16.80
2022-08-05T01:20:00.995Z,14.93
2022-08-05T01:22:41.162Z,17.52
2022-08-05T01:25:40.948Z,18.20
2022-08-05T01:28:14.988Z,18.17
2022-08-05T01:31:12.375Z,19.55
2022-08-05T01:33:55.439Z,17.65
2022-08-05T01:36:28.234Z,19.05
2022-08-05T01:38:56.963Z,20.35
2022-08-05T01:41:31.532Z,20.60
2022-08-05T01:44:03.416Z,20.98
2022-08-05T01:46:41.910Z,20.77
2022-08-05T01:49:23.685Z,21.65
2022-08-05T01:52:00.272Z,18.75
2022-08-05T01:54:53.019Z,17.58
2022-08-05T01:58:14.850Z,19.02
2022-08-05T02:00:15.305Z,17.83
2022-08-05T02:02:54.440Z,19.55
2022-08-05T02:05:25.790Z,21.85
2022-08-05T02:08:01.707Z,22.65
2022-08-05T02:10:35.295Z,21.45
2022-08-05T02:13:16.093Z,19.35
2022-08-05T02:15:51.483Z,18.30
2022-08-05T02:18:34.790Z,19.17
2022-08-05T02:21:23.705Z,18.75
2022-08-05T02:23:55.972Z,18.08
2022-08-05T02:26:51.806Z,18.50
2022-08-05T02:29:24.255Z,17.73
2022-08-05T02:31:57.586Z,17.27
2022-08-05T02:34:28.075Z,17.80
2022-08-05T02:36:58.312Z,19.48
2022-08-05T02:39:28.127Z,19.58
2022-08-05T02:42:01.294Z,20.35
2022-08-05T02:44:31.189Z,18.15
2022-08-05T02:47:00.750Z,18.30
2022-08-05T02:49:36.801Z,17.33
2022-08-05T02:52:29.639Z,16.75
2022-08-05T02:55:01.959Z,15.98
2022-08-05T02:58:11.546Z,15.65
2022-08-05T03:00:25.322Z,17.58
2022-08-05T03:02:53.939Z,18.35
2022-08-05T03:05:21.939Z,17.90
2022-08-05T03:08:10.897Z,17.52
2022-08-05T03:10:38.601Z,15.48
2022-08-05T03:13:17.046Z,17.48
2022-08-05T03:15:46.151Z,17.67
2022-08-05T03:18:14.378Z,17.75
2022-08-05T03:20:48.751Z,16.48
2022-08-05T03:23:16.644Z,15.57
2022-08-05T03:26:04.579Z,15.57
2022-08-05T03:28:32.007Z,16.10
2022-08-05T03:31:00.968Z,15.18
2022-08-05T03:33:49.294Z,16.48
2022-08-05T03:36:16.878Z,15.82
2022-08-05T03:38:59.466Z,15.43
2022-08-05T03:41:33.048Z,15.93
2022-08-05T03:44:11.825Z,15.65
2022-08-05T03:46:39.491Z,16.98
2022-08-05T03:49:06.916Z,17.00
2022-08-05T03:52:36.558Z,16.90
2022-08-05T03:56:04.437Z,17.65
2022-08-05T03:58:05.958Z,24.02
2022-08-05T04:00:33.831Z,19.25
2022-08-05T04:03:03.084Z,18.90
2022-08-05T04:05:34.768Z,18.67
2022-08-05T04:08:05.713Z,17.83
2022-08-05T04:10:45.068Z,16.80
2022-08-05T04:13:14.275Z,18.50
2022-08-05T04:16:03.343Z,17.63
2022-08-05T04:18:29.398Z,17.20
2022-08-05T04:20:58.280Z,17.83
2022-08-05T04:24:04.959Z,17.75
2022-08-05T04:26:15.604Z,17.75
2022-08-05T04:28:51.249Z,17.00
2022-08-05T04:31:20.220Z,16.30
2022-08-05T04:34:18.439Z,17.98
2022-08-05T04:36:46.443Z,17.58
2022-08-05T04:39:21.691Z,18.05
2022-08-05T04:41:50.977Z,19.48
2022-08-05T04:44:21.559Z,19.95
2022-08-05T04:47:09.839Z,19.63
2022-08-05T04:50:02.533Z,19.17
2022-08-05T04:52:27.397Z,19.98
2022-08-05T04:54:57.376Z,21.08
2022-08-05T04:57:29.288Z,20.33
2022-08-05T05:00:06.819Z,22.50
2022-08-05T05:02:41.757Z,22.08
2022-08-05T05:05:26.474Z,22.67
2022-08-05T05:08:02.097Z,22.80
2022-08-05T05:10:33.515Z,31.20
2022-08-05T05:13:01.940Z,23.55
2022-08-05T05:15:59.140Z,24.95
2022-08-05T05:18:28.385Z,24.95
2022-08-05T05:20:59.334Z,26.50
2022-08-05T05:23:39.358Z,26.98
2022-08-05T05:26:17.643Z,26.58
2022-08-05T05:28:45.539Z,25.88
2022-08-05T05:31:13.794Z,27.13
2022-08-05T05:33:59.367Z,27.30
2022-08-05T05:36:29.862Z,27.60
2022-08-05T05:38:58.231Z,29.23
2022-08-05T05:41:26.603Z,30.05
2022-08-05T05:44:35.445Z,28.20
2022-08-05T05:46:56.241Z,29.25
2022-08-05T05:49:26.981Z,28.77
2022-08-05T05:51:54.961Z,30.83
2022-08-05T05:54:22.566Z,31.08
2022-08-05T05:57:13.901Z,31.10
2022-08-05T05:59:48.853Z,30.60
2022-08-05T06:02:17.059Z,30.45
2022-08-05T06:05:00.582Z,30.45
2022-08-05T06:07:42.041Z,30.70
2022-08-05T06:10:21.450Z,30.90
2022-08-05T06:12:51.740Z,29.75
2022-08-05T06:15:23.757Z,29.35
2022-08-05T06:17:55.339Z,29.50
2022-08-05T06:20:23.199Z,29.83
2022-08-05T06:22:53.913Z,27.77
2022-08-05T06:25:59.641Z,30.33
2022-08-05T06:28:12.037Z,27.35
2022-08-05T06:30:52.643Z,28.45
2022-08-05T06:33:33.351Z,26.05
2022-08-05T06:36:10.424Z,25.70
2022-08-05T06:38:46.937Z,24.75
2022-08-05T06:41:15.216Z,24.77
2022-08-05T06:43:58.328Z,26.40
2022-08-05T06:46:29.784Z,23.65
2022-08-05T06:49:00.769Z,22.38
2022-08-05T06:51:30.810Z,18.75
2022-08-05T06:54:00.188Z,19.45
2022-08-05T06:56:30.287Z,14.48
2022-08-05T06:59:08.417Z,15.30
2022-08-05T07:01:46.217Z,15.45
2022-08-05T07:04:14.273Z,14.90
2022-08-05T07:06:42.608Z,15.88
2022-08-05T07:09:10.037Z,15.32
2022-08-05T07:11:39.715Z,14.55
2022-08-05T07:14:29.429Z,15.98
2022-08-05T07:18:01.836Z,16.23
2022-08-05T07:22:45.844Z,15.73
2022-08-05T07:25:22.493Z,15.30
2022-08-05T07:27:58.719Z,14.48
2022-08-05T07:30:38.703Z,14.45
2022-08-05T07:33:15.479Z,14.50
2022-08-05T07:36:01.696Z,13.90
2022-08-05T07:38:33.599Z,14.50
2022-08-05T07:42:06.798Z,14.10
2022-08-05T07:43:57.279Z,13.07
2022-08-05T07:46:29.784Z,12.00
2022-08-05T07:49:05.759Z,14.15
2022-08-05T07:51:40.256Z,13.85
2022-08-05T07:54:11.535Z,14.00
2022-08-05T07:57:01.988Z,13.07
2022-08-05T07:59:40.141Z,12.57
2022-08-05T08:02:16.675Z,13.45
2022-08-05T08:04:49.474Z,15.07
2022-08-05T08:07:23.039Z,15.07
2022-08-05T08:09:52.764Z,15.48
2022-08-05T08:12:33.446Z,15.23
2022-08-05T08:15:15.552Z,15.52
2022-08-05T08:17:50.774Z,14.73
2022-08-05T08:20:59.819Z,13.68
2022-08-05T08:24:03.356Z,14.07
2022-08-05T08:26:04.648Z,14.30
2022-08-05T08:28:36.849Z,15.48
2022-08-05T08:31:18.791Z,14.98
2022-08-05T08:33:51.576Z,14.00
2022-08-05T08:36:29.415Z,14.60
2022-08-05T08:39:15.733Z,13.57
2022-08-05T08:41:59.798Z,13.88
2022-08-05T08:45:20.485Z,13.77
2022-08-05T08:48:06.433Z,13.73
2022-08-05T08:50:30.622Z,14.15
2022-08-05T08:53:07.978Z,14.73
2022-08-05T08:56:04.750Z,13.90
2022-08-05T08:58:37.061Z,13.52
2022-08-05T09:01:16.718Z,14.80
2022-08-05T09:03:57.289Z,13.35
2022-08-05T09:06:28.075Z,13.00
2022-08-05T09:09:10.626Z,13.02
2022-08-05T09:11:53.670Z,12.73
2022-08-05T09:14:57.714Z,12.30
2022-08-05T09:17:42.717Z,12.63
2022-08-05T09:20:05.799Z,12.38
2022-08-05T09:23:07.733Z,13.43
2022-08-05T09:26:02.417Z,12.40
2022-08-05T09:28:32.329Z,12.13
2022-08-05T09:31:22.458Z,12.30
2022-08-05T09:33:59.486Z,12.77
2022-08-05T09:36:54.205Z,12.23
2022-08-05T09:39:41.632Z,12.55
2022-08-05T09:42:22.978Z,12.30
2022-08-05T09:44:56.588Z,12.38
2022-08-05T09:47:48.344Z,12.77
2022-08-05T09:50:37.788Z,14.30
2022-08-05T09:53:08.891Z,14.38
2022-08-05T09:55:56.699Z,16.42
2022-08-05T09:58:29.169Z,14.50
2022-08-05T10:01:15.669Z,15.32
2022-08-05T10:04:00.082Z,14.45
2022-08-05T10:06:28.361Z,14.43
2022-08-05T10:08:59.306Z,14.18
2022-08-05T10:11:31.305Z,14.35
2022-08-05T10:14:22.356Z,14.20
2022-08-05T10:16:58.839Z,12.20
2022-08-05T10:20:02.954Z,9.80
2022-08-05T10:22:29.956Z,9.02
2022-08-05T10:24:58.422Z,6.88
2022-08-05T10:28:12.926Z,6.68
2022-08-05T10:31:20.300Z,4.72
2022-08-05T10:33:14.496Z,5.13
2022-08-05T10:35:44.136Z,5.10
2022-08-05T10:38:13.363Z,4.20
2022-08-05T10:40:46.640Z,3.67
2022-08-05T10:43:14.436Z,3.00
2022-08-05T10:45:42.950Z,3.17
2022-08-05T10:48:57.146Z,2.78
2022-08-05T10:51:28.860Z,2.90
2022-08-05T10:54:00.900Z,3.35
2022-08-05T10:56:31.281Z,3.28
2022-08-05T10:58:58.937Z,4.63
2022-08-05T11:01:55.180Z,4.63
2022-08-05T11:04:44.976Z,4.45
2022-08-05T11:07:32.870Z,5.53
2022-08-05T11:10:22.073Z,5.38
2022-08-05T11:13:01.055Z,5.88
2022-08-05T11:16:00.874Z,6.40
2022-08-05T11:18:34.071Z,6.20
2022-08-05T11:21:11.361Z,6.90
2022-08-05T11:24:03.913Z,6.50
2022-08-05T11:26:43.423Z,6.70
2022-08-05T11:29:34.741Z,6.35
2022-08-05T11:32:29.884Z,6.63
2022-08-05T11:34:59.701Z,7.60
2022-08-05T11:38:30.742Z,6.47
2022-08-05T11:41:34.815Z,10.05
2022-08-05T11:44:08.483Z,6.85
2022-08-05T11:47:09.321Z,7.20
2022-08-05T11:49:49.831Z,6.72
2022-08-05T11:52:29.330Z,6.75
2022-08-05T11:55:07.436Z,6.57
2022-08-05T11:58:07.943Z,6.78
2022-08-05T12:00:37.839Z,7.65
2022-08-05T12:03:31.718Z,7.72
2022-08-05T12:06:06.571Z,6.82
2022-08-05T12:08:53.284Z,7.85
2022-08-05T12:11:28.354Z,7.75
2022-08-05T12:14:15.061Z,7.45
2022-08-05T12:16:47.482Z,7.55
2022-08-05T12:20:25.995Z,7.47
2022-08-05T12:22:09.555Z,7.75
2022-08-05T12:24:49.708Z,8.48
2022-08-05T12:27:25.439Z,8.27
2022-08-05T12:30:15.286Z,8.95
2022-08-05T12:32:50.393Z,9.60
2022-08-05T12:35:21.909Z,9.15
2022-08-05T12:37:53.344Z,9.00
2022-08-05T12:40:26.923Z,10.23
2022-08-05T12:42:57.281Z,10.25
2022-08-05T12:45:42.539Z,11.05
2022-08-05T12:48:27.457Z,10.18
2022-08-05T12:52:10.672Z,11.40
2022-08-05T12:54:16.489Z,10.50
2022-08-05T12:57:14.790Z,15.27
2022-08-05T13:01:57.763Z,12.57
2022-08-05T13:02:36.381Z,10.48
2022-08-05T13:05:06.936Z,13.93
2022-08-05T13:07:59.472Z,10.85
2022-08-05T13:10:32.635Z,12.40
2022-08-05T13:13:02.603Z,10.32
2022-08-05T13:15:41.980Z,11.73
2022-08-05T13:18:37.880Z,10.38
2022-08-05T13:21:10.582Z,11.38
2022-08-05T13:23:50.695Z,12.30
2022-08-05T13:26:24.058Z,13.48
2022-08-05T13:28:59.251Z,13.80
2022-08-05T13:32:03.281Z,13.10
2022-08-05T13:34:22.197Z,14.45
2022-08-05T13:36:54.208Z,34.38
2022-08-05T13:40:15.905Z,18.38
2022-08-05T13:42:14.470Z,27.88
2022-08-05T13:44:46.608Z,17.92
2022-08-05T13:47:35.074Z,18.55
2022-08-05T13:50:05.479Z,17.45
2022-08-05T13:52:36.971Z,17.17
2022-08-05T13:55:07.240Z,16.27
2022-08-05T13:57:51.268Z,15.02
2022-08-05T14:00:27.304Z,13.98
2022-08-05T14:03:00.929Z,14.45
2022-08-05T14:06:24.714Z,14.10
2022-08-05T14:08:21.274Z,13.18
2022-08-05T14:10:59.613Z,14.77
2022-08-05T14:13:32.269Z,11.23
2022-08-05T14:16:05.017Z,9.57
2022-08-05T14:18:37.994Z,9.35
2022-08-05T14:22:10.084Z,9.80
2022-08-05T14:23:53.331Z,9.70
2022-08-05T14:26:38.476Z,9.27
2022-08-05T14:29:16.444Z,9.35
2022-08-05T14:32:02.725Z,9.38
2022-08-05T14:34:35.623Z,9.40
2022-08-05T14:37:06.542Z,8.75
2022-08-05T14:39:50.143Z,8.60
2022-08-05T14:42:22.588Z,8.57
2022-08-05T14:44:52.947Z,9.10
2022-08-05T14:47:58.531Z,9.55
2022-08-05T14:50:18.514Z,9.20
2022-08-05T14:52:53.547Z,9.48
2022-08-05T14:55:26.049Z,13.10
2022-08-05T14:58:10.802Z,10.70
2022-08-05T15:01:16.259Z,13.57
2022-08-05T15:03:45.362Z,17.45
2022-08-05T15:06:15.785Z,17.63
2022-08-05T15:08:59.046Z,18.70
2022-08-05T15:11:51.117Z,13.45
2022-08-05T15:14:34.676Z,14.70
2022-08-05T15:17:44.690Z,14.23
2022-08-05T15:20:01.379Z,41.33
2022-08-05T15:22:28.924Z,21.88
2022-08-05T15:24:59.415Z,16.70
2022-08-05T15:27:35.880Z,18.23
2022-08-05T15:30:04.530Z,12.95
2022-08-05T15:32:33.920Z,13.52
2022-08-05T15:35:10.691Z,14.80
2022-08-05T15:38:33.317Z,11.57
2022-08-05T15:41:04.619Z,16.90
2022-08-05T15:43:23.886Z,15.18
2022-08-05T15:45:59.826Z,13.13
2022-08-05T15:48:30.100Z,18.52
2022-08-05T15:51:03.500Z,11.60
2022-08-05T15:53:38.060Z,14.00
2022-08-05T15:56:22.940Z,9.98
2022-08-05T15:58:52.057Z,14.85
2022-08-05T16:01:29.560Z,22.42
2022-08-05T16:04:12.665Z,25.20
2022-08-05T16:06:49.956Z,15.60
2022-08-05T16:09:22.191Z,10.40
2022-08-05T16:11:52.828Z,13.90
2022-08-05T16:14:22.405Z,10.48
2022-08-05T16:16:49.995Z,27.23
2022-08-05T16:20:03.390Z,10.18
2022-08-05T16:22:11.126Z,11.57
2022-08-05T16:24:51.953Z,11.65
2022-08-05T16:27:47.179Z,10.93
2022-08-05T16:30:08.493Z,7.75
2022-08-05T16:32:51.055Z,9.85
2022-08-05T16:35:20.256Z,8.75
2022-08-05T16:38:02.565Z,7.55
2022-08-05T16:40:47.897Z,7.07
2022-08-05T16:43:23.698Z,7.45
2022-08-05T16:46:06.775Z,7.47
2022-08-05T16:48:41.873Z,6.55
2022-08-05T16:51:13.896Z,9.95
2022-08-05T16:54:05.090Z,6.25
2022-08-05T16:56:33.963Z,8.30
2022-08-05T16:59:08.489Z,7.72
2022-08-05T17:01:54.347Z,9.40
2022-08-05T17:04:28.199Z,9.15
2022-08-05T17:07:01.298Z,9.95
2022-08-05T17:09:30.108Z,12.88
2022-08-05T17:11:59.345Z,10.02
2022-08-05T17:14:45.417Z,9.88
2022-08-05T17:17:41.969Z,11.93
2022-08-05T17:20:16.535Z,10.55
2022-08-05T17:22:47.625Z,10.13
2022-08-05T17:25:33.735Z,7.97
2022-08-05T17:28:07.816Z,12.38
2022-08-05T17:30:50.734Z,12.63
2022-08-05T17:33:25.559Z,9.18
2022-08-05T17:36:07.770Z,8.85
2022-08-05T17:38:41.274Z,10.43
2022-08-05T17:41:11.697Z,13.43
2022-08-05T17:43:57.972Z,9.35
2022-08-05T17:46:27.638Z,23.55
2022-08-05T17:49:06.325Z,12.32
2022-08-05T17:51:40.263Z,9.48
2022-08-05T17:54:10.918Z,10.45
2022-08-05T17:56:38.773Z,13.43
2022-08-05T17:59:06.327Z,9.02
2022-08-05T18:01:49.427Z,9.35
2022-08-05T18:04:21.238Z,9.25
2022-08-05T18:06:55.212Z,9.07
2022-08-05T18:09:58.555Z,13.38
2022-08-05T18:12:22.156Z,10.90
2022-08-05T18:14:54.928Z,17.15
2022-08-05T18:18:01.503Z,12.63
2022-08-05T18:20:14.017Z,15.68
2022-08-05T18:22:54.111Z,12.35
2022-08-05T18:25:22.472Z,11.90
2022-08-05T18:27:54.546Z,11.82
2022-08-05T18:30:22.201Z,11.30
2022-08-05T18:33:00.935Z,13.88
2022-08-05T18:35:59.709Z,11.27
2022-08-05T18:38:26.404Z,11.23
2022-08-05T18:41:54.170Z,59.90
2022-08-05T18:43:51.036Z,14.88
2022-08-05T18:46:20.111Z,13.57
2022-08-05T18:48:52.663Z,12.15
2022-08-05T18:52:06.505Z,12.35
2022-08-05T18:54:28.397Z,12.82
2022-08-05T18:57:02.414Z,13.50
2022-08-05T18:59:43.440Z,12.65
2022-08-05T19:02:26.834Z,13.23
2022-08-05T19:05:02.248Z,13.63
2022-08-05T19:07:48.189Z,13.75
2022-08-05T19:10:17.508Z,14.68
2022-08-05T19:12:49.645Z,14.25
2022-08-05T19:15:59.323Z,14.98
2022-08-05T19:18:21.859Z,15.52
2022-08-05T19:20:54.716Z,16.33
2022-08-05T19:24:07.245Z,15.85
2022-08-05T19:26:16.699Z,17.38
2022-08-05T19:28:46.649Z,17.13
2022-08-05T19:31:19.278Z,16.63
2022-08-05T19:33:56.292Z,17.55
2022-08-05T19:36:25.890Z,16.52
2022-08-05T19:39:00.942Z,17.63
2022-08-05T19:41:58.310Z,18.30
2022-08-05T19:44:21.980Z,19.88
2022-08-05T19:46:50.904Z,19.90
2022-08-05T19:49:22.521Z,18.90
2022-08-05T19:52:09.128Z,19.45
2022-08-05T19:54:41.399Z,18.83
2022-08-05T19:57:11.859Z,19.58
2022-08-05T19:59:54.686Z,20.88
2022-08-05T20:02:31.433Z,20.88
2022-08-05T20:05:00.063Z,20.65
2022-08-05T20:07:45.903Z,19.17
2022-08-05T20:10:22.199Z,20.25
2022-08-05T20:12:50.095Z,18.83
2022-08-05T20:15:48.231Z,19.75
2022-08-05T20:18:32.691Z,18.60
2022-08-05T20:21:04.806Z,20.35
2022-08-05T20:23:51.076Z,20.88
2022-08-05T20:26:24.751Z,20.15
2022-08-05T20:28:56.816Z,21.27
2022-08-05T20:31:42.995Z,20.98
2022-08-05T20:34:19.480Z,20.88
2022-08-05T20:36:48.559Z,20.20
2022-08-05T20:39:17.618Z,20.23
2022-08-05T20:41:47.811Z,19.83
2022-08-05T20:44:30.566Z,19.83
2022-08-05T20:47:03.082Z,19.83
2022-08-05T20:49:39.458Z,19.80
2022-08-05T20:52:07.941Z,20.40
2022-08-05T20:54:55.349Z,19.83
2022-08-05T20:57:42.715Z,20.10
2022-08-05T21:00:40.619Z,20.20
2022-08-05T21:03:07.413Z,20.33
2022-08-05T21:05:53.525Z,19.58
2022-08-05T21:08:41.966Z,19.38
2022-08-05T21:12:10.553Z,18.25
2022-08-05T21:14:04.855Z,19.98
2022-08-05T21:16:34.703Z,18.70
2022-08-05T21:19:03.873Z,19.50
2022-08-05T21:21:39.043Z,18.33
2022-08-05T21:24:15.521Z,21.00
2022-08-05T21:26:47.374Z,18.60
2022-08-05T21:29:31.585Z,18.90
2022-08-05T21:32:02.888Z,19.15
2022-08-05T21:34:31.772Z,20.08
2022-08-05T21:37:00.763Z,19.73
2022-08-05T21:39:34.807Z,19.63
2022-08-05T21:42:30.560Z,19.60
2022-08-05T21:44:56.274Z,20.65
2022-08-05T21:47:55.683Z,20.25
2022-08-05T21:50:13.387Z,19.67
2022-08-05T21:52:47.214Z,21.25
2022-08-05T21:55:18.102Z,19.42
2022-08-05T21:58:05.770Z,20.23
2022-08-05T22:00:34.547Z,20.05
2022-08-05T22:03:04.382Z,19.63
2022-08-05T22:05:48.114Z,19.38
2022-08-05T22:08:24.095Z,20.00
2022-08-05T22:10:54.724Z,21.15
2022-08-05T22:14:20.000Z,17.73
2022-08-05T22:16:41.166Z,17.25
2022-08-05T22:19:01.225Z,18.63
2022-08-05T22:21:29.365Z,19.30
2022-08-05T22:24:40.360Z,18.30
2022-08-05T22:27:24.858Z,17.63
2022-08-05T22:30:14.135Z,16.73
2022-08-05T22:32:44.968Z,18.23
2022-08-05T22:35:14.103Z,18.02
2022-08-05T22:37:58.095Z,16.55
2022-08-05T22:40:30.811Z,26.02
2022-08-05T22:42:58.797Z,17.33
2022-08-05T22:45:27.019Z,31.63
2022-08-05T22:47:58.382Z,16.98
2022-08-05T22:50:27.823Z,17.80
2022-08-05T22:52:57.023Z,15.65
2022-08-05T22:55:25.990Z,15.23
2022-08-05T22:57:55.613Z,15.95
2022-08-05T23:00:26.611Z,15.77
2022-08-05T23:02:56.597Z,15.50
2022-08-05T23:05:26.291Z,15.50
2022-08-05T23:08:04.696Z,16.40
2022-08-05T23:10:50.911Z,17.10
2022-08-05T23:13:36.363Z,15.90
2022-08-05T23:16:04.907Z,14.90
2022-08-05T23:18:32.978Z,15.07
2022-08-05T23:21:01.021Z,14.52
2022-08-05T23:23:33.672Z,14.65
2022-08-05T23:26:03.749Z,15.50
2022-08-05T23:28:36.479Z,15.32
2022-08-05T23:31:16.914Z,14.95
2022-08-05T23:34:05.658Z,15.98
2022-08-05T23:36:39.997Z,15.50
2022-08-05T23:39:17.555Z,15.02
2022-08-05T23:42:00.133Z,14.85
2022-08-05T23:44:31.204Z,14.02
2022-08-05T23:47:02.583Z,15.27
2022-08-05T23:49:45.701Z,15.32
2022-08-05T23:52:32.444Z,14.73
2022-08-05T23:55:09.545Z,14.63
2022-08-05T23:57:38.391Z,14.50
